sensor_id;sensor_type;location;lat;lon;timestamp;pressure;altitude;pressure_sealevel;temperature;humidity
59190;BME280;50749;51.636;4.948;2023-05-02T00:00:40;102117.19;;;18.56;59.06
59190;BME280;50749;51.636;4.948;2023-05-02T00:03:14;102125.50;;;18.56;59.02
59190;BME280;50749;51.636;4.948;2023-05-02T00:05:41;102130.22;;;18.56;59.51
59190;BME280;50749;51.636;4.948;2023-05-02T00:08:07;102129.41;;;18.55;59.04
59190;BME280;50749;51.636;4.948;2023-05-02T00:10:33;102136.91;;;18.55;59.17
59190;BME280;50749;51.636;4.948;2023-05-02T00:12:59;102139.66;;;18.55;59.36
59190;BME280;50749;51.636;4.948;2023-05-02T00:15:25;102143.25;;;18.55;59.42
59190;BME280;50749;51.636;4.948;2023-05-02T00:17:52;102146.34;;;18.54;59.24
59190;BME280;50749;51.636;4.948;2023-05-02T00:20:18;102147.97;;;18.55;58.87
59190;BME280;50749;51.636;4.948;2023-05-02T00:22:43;102155.47;;;18.54;59.19
59190;BME280;50749;51.636;4.948;2023-05-02T00:25:09;102149.09;;;18.54;59.42
59190;BME280;50749;51.636;4.948;2023-05-02T00:27:41;102149.44;;;18.52;58.84
59190;BME280;50749;51.636;4.948;2023-05-02T00:30:08;102147.81;;;18.51;59.36
59190;BME280;50749;51.636;4.948;2023-05-02T00:32:34;102143.41;;;18.50;59.01
59190;BME280;50749;51.636;4.948;2023-05-02T00:35:00;102142.63;;;18.50;59.11
59190;BME280;50749;51.636;4.948;2023-05-02T00:37:26;102150.94;;;18.50;58.84
59190;BME280;50749;51.636;4.948;2023-05-02T00:39:53;102151.72;;;18.50;58.88
59190;BME280;50749;51.636;4.948;2023-05-02T00:42:19;102148.16;;;18.50;58.91
59190;BME280;50749;51.636;4.948;2023-05-02T00:44:45;102156.47;;;18.50;58.91
59190;BME280;50749;51.636;4.948;2023-05-02T00:47:11;102155.66;;;18.49;58.71
59190;BME280;50749;51.636;4.948;2023-05-02T00:49:39;102145.72;;;18.48;58.80
59190;BME280;50749;51.636;4.948;2023-05-02T00:52:04;102152.06;;;18.49;58.84
59190;BME280;50749;51.636;4.948;2023-05-02T00:54:30;102149.28;;;18.49;58.94
59190;BME280;50749;51.636;4.948;2023-05-02T00:56:56;102153.22;;;18.48;59.28
59190;BME280;50749;51.636;4.948;2023-05-02T00:59:22;102146.84;;;18.47;59.39
59190;BME280;50749;51.636;4.948;2023-05-02T01:02:10;102135.78;;;18.47;58.80
59190;BME280;50749;51.636;4.948;2023-05-02T01:07:53;102135.78;;;18.47;59.09
59190;BME280;50749;51.636;4.948;2023-05-02T01:11:02;102136.94;;;18.46;58.77
59190;BME280;50749;51.636;4.948;2023-05-02T01:13:33;102134.16;;;18.46;59.07
59190;BME280;50749;51.636;4.948;2023-05-02T01:16:01;102132.53;;;18.45;58.83
59190;BME280;50749;51.636;4.948;2023-05-02T01:18:31;102139.69;;;18.46;58.79
59190;BME280;50749;51.636;4.948;2023-05-02T01:21:06;102138.88;;;18.46;59.14
59190;BME280;50749;51.636;4.948;2023-05-02T01:23:56;102140.03;;;18.45;59.23
59190;BME280;50749;51.636;4.948;2023-05-02T01:31:24;102145.09;;;18.43;59.19
59190;BME280;50749;51.636;4.948;2023-05-02T01:33:53;102139.88;;;18.41;59.15
59190;BME280;50749;51.636;4.948;2023-05-02T01:36:22;102138.72;;;18.42;58.91
59190;BME280;50749;51.636;4.948;2023-05-02T01:38:50;102142.66;;;18.41;59.34
59190;BME280;50749;51.636;4.948;2023-05-02T01:41:18;102139.03;;;18.41;59.33
59190;BME280;50749;51.636;4.948;2023-05-02T01:43:46;102138.25;;;18.40;59.21
59190;BME280;50749;51.636;4.948;2023-05-02T01:46:13;102152.09;;;18.40;59.19
59190;BME280;50749;51.636;4.948;2023-05-02T01:48:41;102159.59;;;18.40;58.92
59190;BME280;50749;51.636;4.948;2023-05-02T01:51:10;102159.13;;;18.37;59.07
59190;BME280;50749;51.636;4.948;2023-05-02T01:53:37;102160.72;;;18.38;58.79
59190;BME280;50749;51.636;4.948;2023-05-02T01:56:05;102172.97;;;18.37;59.16
59190;BME280;50749;51.636;4.948;2023-05-02T01:58:32;102180.44;;;18.37;59.08
59190;BME280;50749;51.636;4.948;2023-05-02T02:00:59;102180.44;;;18.37;58.95
59190;BME280;50749;51.636;4.948;2023-05-02T02:03:28;102183.19;;;18.37;58.79
59190;BME280;50749;51.636;4.948;2023-05-02T02:05:57;102196.22;;;18.36;59.23
59190;BME280;50749;51.636;4.948;2023-05-02T02:08:23;102194.59;;;18.35;59.12
59190;BME280;50749;51.636;4.948;2023-05-02T02:10:58;102198.19;;;18.36;59.08
59190;BME280;50749;51.636;4.948;2023-05-02T02:13:30;102202.91;;;18.35;59.03
59190;BME280;50749;51.636;4.948;2023-05-02T02:16:00;102208.75;;;18.34;58.92
59190;BME280;50749;51.636;4.948;2023-05-02T02:18:28;102204.88;;;18.35;58.68
59190;BME280;50749;51.636;4.948;2023-05-02T02:20:58;102212.69;;;18.33;58.92
59190;BME280;50749;51.636;4.948;2023-05-02T02:23:25;102207.97;;;18.33;59.05
59190;BME280;50749;51.636;4.948;2023-05-02T02:25:53;102209.94;;;18.33;58.72
59190;BME280;50749;51.636;4.948;2023-05-02T02:28:20;102207.16;;;18.33;58.98
59190;BME280;50749;51.636;4.948;2023-05-02T02:30:46;102211.53;;;18.34;58.73
59190;BME280;50749;51.636;4.948;2023-05-02T02:33:12;102217.41;;;18.32;58.98
59190;BME280;50749;51.636;4.948;2023-05-02T02:35:43;102219.69;;;18.30;59.07
59190;BME280;50749;51.636;4.948;2023-05-02T02:38:33;102220.50;;;18.31;58.77
59190;BME280;50749;51.636;4.948;2023-05-02T02:41:26;102225.22;;;18.30;58.94
59190;BME280;50749;51.636;4.948;2023-05-02T02:44:03;102232.41;;;18.31;59.12
59190;BME280;50749;51.636;4.948;2023-05-02T02:46:47;102224.41;;;18.30;58.84
59190;BME280;50749;51.636;4.948;2023-05-02T02:52:09;102228.31;;;18.29;59.14
59190;BME280;50749;51.636;4.948;2023-05-02T02:55:06;102223.94;;;18.28;59.09
59190;BME280;50749;51.636;4.948;2023-05-02T02:57:48;102232.25;;;18.28;58.79
59190;BME280;50749;51.636;4.948;2023-05-02T03:00:20;102232.25;;;18.28;58.94
59190;BME280;50749;51.636;4.948;2023-05-02T03:02:47;102228.63;;;18.27;58.78
59190;BME280;50749;51.636;4.948;2023-05-02T03:05:13;102238.09;;;18.26;58.82
59190;BME280;50749;51.636;4.948;2023-05-02T03:07:40;102244.75;;;18.25;58.75
59190;BME280;50749;51.636;4.948;2023-05-02T03:10:06;102245.59;;;18.26;58.58
59190;BME280;50749;51.636;4.948;2023-05-02T03:12:33;102247.53;;;18.25;58.76
59190;BME280;50749;51.636;4.948;2023-05-02T03:17:39;102255.03;;;18.25;58.87
59190;BME280;50749;51.636;4.948;2023-05-02T03:20:05;102247.53;;;18.25;59.04
59190;BME280;50749;51.636;4.948;2023-05-02T03:22:31;102247.84;;;18.24;59.03
59190;BME280;50749;51.636;4.948;2023-05-02T03:24:57;102254.22;;;18.24;58.91
59190;BME280;50749;51.636;4.948;2023-05-02T03:27:23;102258.13;;;18.23;59.09
59190;BME280;50749;51.636;4.948;2023-05-02T03:29:49;102260.88;;;18.23;58.52
59190;BME280;50749;51.636;4.948;2023-05-02T03:32:14;102262.84;;;18.23;58.70
59190;BME280;50749;51.636;4.948;2023-05-02T03:34:41;102265.63;;;18.23;58.69
59190;BME280;50749;51.636;4.948;2023-05-02T03:37:07;102267.56;;;18.22;58.88
59190;BME280;50749;51.636;4.948;2023-05-02T03:39:32;102279.47;;;18.23;58.86
59190;BME280;50749;51.636;4.948;2023-05-02T03:41:58;102277.81;;;18.22;59.12
59190;BME280;50749;51.636;4.948;2023-05-02T03:44:24;102280.59;;;18.22;59.01
59190;BME280;50749;51.636;4.948;2023-05-02T03:46:50;102288.91;;;18.22;58.70
59190;BME280;50749;51.636;4.948;2023-05-02T03:49:16;102290.84;;;18.21;58.88
59190;BME280;50749;51.636;4.948;2023-05-02T03:51:42;102299.47;;;18.19;58.90
59190;BME280;50749;51.636;4.948;2023-05-02T03:54:08;102299.47;;;18.19;58.92
59190;BME280;50749;51.636;4.948;2023-05-02T03:56:34;102302.25;;;18.19;58.65
59190;BME280;50749;51.636;4.948;2023-05-02T03:59:00;102305.03;;;18.19;58.75
59190;BME280;50749;51.636;4.948;2023-05-02T04:01:27;102308.59;;;18.20;58.92
59190;BME280;50749;51.636;4.948;2023-05-02T04:03:52;102312.50;;;18.19;58.97
59190;BME280;50749;51.636;4.948;2023-05-02T04:06:18;102317.22;;;18.18;58.63
59190;BME280;50749;51.636;4.948;2023-05-02T04:08:44;102321.13;;;18.17;58.77
59190;BME280;50749;51.636;4.948;2023-05-02T04:11:10;102324.72;;;18.18;59.05
59190;BME280;50749;51.636;4.948;2023-05-02T04:13:36;102324.72;;;18.18;58.92
59190;BME280;50749;51.636;4.948;2023-05-02T04:16:02;102332.22;;;18.17;58.50
59190;BME280;50749;51.636;4.948;2023-05-02T04:18:28;102336.09;;;18.16;58.61
59190;BME280;50749;51.636;4.948;2023-05-02T04:20:55;102332.53;;;18.16;58.86
59190;BME280;50749;51.636;4.948;2023-05-02T04:23:21;102335.31;;;18.16;58.49
59190;BME280;50749;51.636;4.948;2023-05-02T04:25:54;102340.84;;;18.16;58.60
59190;BME280;50749;51.636;4.948;2023-05-02T04:28:21;102345.53;;;18.15;58.76
59190;BME280;50749;51.636;4.948;2023-05-02T04:30:48;102348.31;;;18.15;58.79
59190;BME280;50749;51.636;4.948;2023-05-02T04:33:14;102345.53;;;18.15;58.41
59190;BME280;50749;51.636;4.948;2023-05-02T04:35:40;102355.81;;;18.15;58.66
59190;BME280;50749;51.636;4.948;2023-05-02T04:38:06;102363.31;;;18.14;58.35
59190;BME280;50749;51.636;4.948;2023-05-02T04:40:33;102369.97;;;18.13;58.51
59190;BME280;50749;51.636;4.948;2023-05-02T04:42:58;102364.44;;;18.13;58.78
59190;BME280;50749;51.636;4.948;2023-05-02T04:45:25;102370.78;;;18.14;58.57
59190;BME280;50749;51.636;4.948;2023-05-02T04:47:51;102364.44;;;18.13;58.62
59190;BME280;50749;51.636;4.948;2023-05-02T04:50:17;102375.50;;;18.13;58.36
59190;BME280;50749;51.636;4.948;2023-05-02T04:52:42;102381.03;;;18.13;58.85
59190;BME280;50749;51.636;4.948;2023-05-02T04:55:08;102379.41;;;18.12;58.44
59190;BME280;50749;51.636;4.948;2023-05-02T04:57:34;102386.25;;;18.15;58.33
59190;BME280;50749;51.636;4.948;2023-05-02T05:00:00;102382.19;;;18.12;58.27
59190;BME280;50749;51.636;4.948;2023-05-02T05:02:26;102387.38;;;18.14;58.28
59190;BME280;50749;51.636;4.948;2023-05-02T05:04:52;102386.56;;;18.13;58.61
59190;BME280;50749;51.636;4.948;2023-05-02T05:07:18;102398.44;;;18.14;58.13
59190;BME280;50749;51.636;4.948;2023-05-02T05:09:44;102393.75;;;18.14;58.39
59190;BME280;50749;51.636;4.948;2023-05-02T05:12:10;102397.00;;;18.16;58.23
59190;BME280;50749;51.636;4.948;2023-05-02T05:14:36;102406.09;;;18.17;58.01
59190;BME280;50749;51.636;4.948;2023-05-02T05:17:01;102407.13;;;18.30;58.04
59190;BME280;50749;51.636;4.948;2023-05-02T05:19:27;102413.06;;;18.89;56.43
59190;BME280;50749;51.636;4.948;2023-05-02T05:21:53;102409.06;;;19.43;54.93
59190;BME280;50749;51.636;4.948;2023-05-02T05:24:19;102414.88;;;19.67;54.21
59190;BME280;50749;51.636;4.948;2023-05-02T05:26:45;102419.41;;;19.81;53.03
59190;BME280;50749;51.636;4.948;2023-05-02T05:29:11;102416.94;;;19.88;52.76
59190;BME280;50749;51.636;4.948;2023-05-02T05:31:37;102420.16;;;19.90;52.98
59190;BME280;50749;51.636;4.948;2023-05-02T05:34:03;102430.81;;;19.88;53.82
59190;BME280;50749;51.636;4.948;2023-05-02T05:36:28;102430.50;;;19.81;53.17
59190;BME280;50749;51.636;4.948;2023-05-02T05:38:56;102437.25;;;19.62;53.96
59190;BME280;50749;51.636;4.948;2023-05-02T05:41:21;102438.44;;;19.44;54.35
59190;BME280;50749;51.636;4.948;2023-05-02T05:43:47;102444.50;;;19.28;55.61
59190;BME280;50749;51.636;4.948;2023-05-02T05:46:13;102448.91;;;19.12;56.47
59190;BME280;50749;51.636;4.948;2023-05-02T05:48:39;102444.69;;;18.97;56.76
59190;BME280;50749;51.636;4.948;2023-05-02T05:51:05;102451.19;;;18.92;56.88
59190;BME280;50749;51.636;4.948;2023-05-02T05:53:32;102453.00;;;18.88;56.71
59190;BME280;50749;51.636;4.948;2023-05-02T05:55:58;102460.00;;;18.86;57.24
59190;BME280;50749;51.636;4.948;2023-05-02T05:58:24;102463.09;;;18.84;57.47
59190;BME280;50749;51.636;4.948;2023-05-02T06:00:50;102468.97;;;18.83;57.37
59190;BME280;50749;51.636;4.948;2023-05-02T06:03:16;102460.13;;;18.81;57.52
59190;BME280;50749;51.636;4.948;2023-05-02T06:05:42;102464.25;;;18.83;58.27
59190;BME280;50749;51.636;4.948;2023-05-02T06:08:08;102478.59;;;18.85;57.50
59190;BME280;50749;51.636;4.948;2023-05-02T06:10:34;102483.66;;;18.83;57.30
59190;BME280;50749;51.636;4.948;2023-05-02T06:13:00;102491.13;;;18.83;57.33
59190;BME280;50749;51.636;4.948;2023-05-02T06:15:26;102481.50;;;18.80;57.19
59190;BME280;50749;51.636;4.948;2023-05-02T06:17:52;102478.22;;;18.78;57.50
59190;BME280;50749;51.636;4.948;2023-05-02T06:20:17;102486.03;;;18.76;57.27
59190;BME280;50749;51.636;4.948;2023-05-02T06:22:43;102494.69;;;18.74;57.34
59190;BME280;50749;51.636;4.948;2023-05-02T06:25:09;102493.84;;;18.74;57.48
59190;BME280;50749;51.636;4.948;2023-05-02T06:27:35;102503.00;;;18.74;57.58
59190;BME280;50749;51.636;4.948;2023-05-02T06:30:01;102501.84;;;18.75;57.31
59190;BME280;50749;51.636;4.948;2023-05-02T06:32:30;102509.84;;;18.77;57.64
59190;BME280;50749;51.636;4.948;2023-05-02T06:34:59;102522.56;;;18.78;57.66
59190;BME280;50749;51.636;4.948;2023-05-02T06:37:25;102515.88;;;18.79;57.57
59190;BME280;50749;51.636;4.948;2023-05-02T06:39:50;102520.59;;;18.79;57.53
59190;BME280;50749;51.636;4.948;2023-05-02T06:42:16;102525.34;;;18.78;57.21
59190;BME280;50749;51.636;4.948;2023-05-02T06:44:42;102519.28;;;18.76;57.44
59190;BME280;50749;51.636;4.948;2023-05-02T06:47:08;102524.81;;;18.76;57.60
59190;BME280;50749;51.636;4.948;2023-05-02T06:49:34;102534.28;;;18.75;57.54
59190;BME280;50749;51.636;4.948;2023-05-02T06:52:02;102536.56;;;18.73;57.54
59190;BME280;50749;51.636;4.948;2023-05-02T06:54:28;102535.72;;;18.72;57.77
59190;BME280;50749;51.636;4.948;2023-05-02T06:56:54;102542.13;;;18.73;57.58
59190;BME280;50749;51.636;4.948;2023-05-02T06:59:21;102541.78;;;18.74;57.44
59190;BME280;50749;51.636;4.948;2023-05-02T07:01:47;102551.72;;;18.75;57.54
59190;BME280;50749;51.636;4.948;2023-05-02T07:04:13;102550.91;;;18.75;57.44
59190;BME280;50749;51.636;4.948;2023-05-02T07:06:39;102554.16;;;18.77;57.78
59190;BME280;50749;51.636;4.948;2023-05-02T07:09:04;102556.63;;;18.79;57.67
59190;BME280;50749;51.636;4.948;2023-05-02T07:11:30;102559.06;;;18.80;57.94
59190;BME280;50749;51.636;4.948;2023-05-02T07:13:56;102569.03;;;18.81;57.53
59190;BME280;50749;51.636;4.948;2023-05-02T07:16:22;102570.16;;;18.80;57.69
59190;BME280;50749;51.636;4.948;2023-05-02T07:18:48;102559.56;;;18.82;57.37
59190;BME280;50749;51.636;4.948;2023-05-02T07:21:14;102575.69;;;18.80;57.22
59190;BME280;50749;51.636;4.948;2023-05-02T07:23:40;102569.97;;;18.77;57.52
59190;BME280;50749;51.636;4.948;2023-05-02T07:26:06;102571.91;;;18.76;57.51
59190;BME280;50749;51.636;4.948;2023-05-02T07:28:31;102573.06;;;18.75;57.47
59190;BME280;50749;51.636;4.948;2023-05-02T07:30:57;102573.06;;;18.75;57.74
59190;BME280;50749;51.636;4.948;2023-05-02T07:33:23;102576.16;;;18.73;57.33
59190;BME280;50749;51.636;4.948;2023-05-02T07:35:50;102573.72;;;18.72;57.58
59190;BME280;50749;51.636;4.948;2023-05-02T07:38:15;102578.44;;;18.71;57.87
59190;BME280;50749;51.636;4.948;2023-05-02T07:40:42;102583.50;;;18.69;57.80
59190;BME280;50749;51.636;4.948;2023-05-02T07:43:08;102589.84;;;18.70;57.38
59190;BME280;50749;51.636;4.948;2023-05-02T07:45:34;102594.06;;;18.67;57.75
59190;BME280;50749;51.636;4.948;2023-05-02T07:48:00;102593.25;;;18.67;57.76
59190;BME280;50749;51.636;4.948;2023-05-02T07:50:26;102588.84;;;18.66;57.48
59190;BME280;50749;51.636;4.948;2023-05-02T07:52:54;102603.00;;;18.64;57.62
59190;BME280;50749;51.636;4.948;2023-05-02T07:55:20;102603.34;;;18.63;57.71
59190;BME280;50749;51.636;4.948;2023-05-02T07:57:46;102602.03;;;18.60;57.41
59190;BME280;50749;51.636;4.948;2023-05-02T08:00:13;102608.69;;;18.59;57.67
59190;BME280;50749;51.636;4.948;2023-05-02T08:02:42;102606.44;;;18.61;58.04
59190;BME280;50749;51.636;4.948;2023-05-02T08:05:10;102596.97;;;18.62;57.96
59190;BME280;50749;51.636;4.948;2023-05-02T08:07:35;102612.16;;;18.65;57.86
59190;BME280;50749;51.636;4.948;2023-05-02T08:10:04;102599.44;;;18.64;57.72
59190;BME280;50749;51.636;4.948;2023-05-02T08:12:30;102607.75;;;18.64;58.19
59190;BME280;50749;51.636;4.948;2023-05-02T08:14:56;102603.84;;;18.65;58.23
59190;BME280;50749;51.636;4.948;2023-05-02T08:17:22;102609.38;;;18.65;58.19
59190;BME280;50749;51.636;4.948;2023-05-02T08:19:48;102613.78;;;18.66;57.75
59190;BME280;50749;51.636;4.948;2023-05-02T08:22:13;102619.31;;;18.66;57.77
59190;BME280;50749;51.636;4.948;2023-05-02T08:24:39;102615.41;;;18.67;57.52
59190;BME280;50749;51.636;4.948;2023-05-02T08:27:05;102625.69;;;18.66;57.63
59190;BME280;50749;51.636;4.948;2023-05-02T08:29:31;102630.91;;;18.68;57.59
59190;BME280;50749;51.636;4.948;2023-05-02T08:31:57;102628.94;;;18.68;57.46
59190;BME280;50749;51.636;4.948;2023-05-02T08:34:23;102640.03;;;18.68;57.88
59190;BME280;50749;51.636;4.948;2023-05-02T08:36:49;102647.22;;;18.69;58.01
59190;BME280;50749;51.636;4.948;2023-05-02T08:39:15;102646.56;;;18.72;57.85
59190;BME280;50749;51.636;4.948;2023-05-02T08:41:41;102649.00;;;18.74;57.57
59190;BME280;50749;51.636;4.948;2023-05-02T08:44:07;102664.19;;;18.77;57.25
59190;BME280;50749;51.636;4.948;2023-05-02T08:46:39;102662.22;;;18.77;57.69
59190;BME280;50749;51.636;4.948;2023-05-02T08:49:06;102666.00;;;18.81;57.73
59190;BME280;50749;51.636;4.948;2023-05-02T08:51:33;102666.69;;;18.87;57.80
59190;BME280;50749;51.636;4.948;2023-05-02T08:54:03;102663.94;;;18.87;57.53
59190;BME280;50749;51.636;4.948;2023-05-02T08:56:31;102669.97;;;18.89;57.81
59190;BME280;50749;51.636;4.948;2023-05-02T08:58:58;102668.13;;;18.84;57.77
59190;BME280;50749;51.636;4.948;2023-05-02T09:01:27;102668.34;;;18.88;57.38
59190;BME280;50749;51.636;4.948;2023-05-02T09:03:55;102664.09;;;18.90;57.09
59190;BME280;50749;51.636;4.948;2023-05-02T09:06:24;102664.09;;;18.90;57.40
59190;BME280;50749;51.636;4.948;2023-05-02T09:08:51;102665.75;;;18.91;57.37
59190;BME280;50749;51.636;4.948;2023-05-02T09:11:18;102673.38;;;18.94;57.21
59190;BME280;50749;51.636;4.948;2023-05-02T09:13:50;102686.13;;;18.96;57.10
59190;BME280;50749;51.636;4.948;2023-05-02T09:16:21;102695.06;;;18.92;57.27
59190;BME280;50749;51.636;4.948;2023-05-02T09:18:49;102689.22;;;18.94;57.48
59190;BME280;50749;51.636;4.948;2023-05-02T09:21:16;102693.94;;;18.93;57.12
59190;BME280;50749;51.636;4.948;2023-05-02T09:23:45;102699.97;;;18.96;57.41
59190;BME280;50749;51.636;4.948;2023-05-02T09:26:15;102707.97;;;18.97;57.29
59190;BME280;50749;51.636;4.948;2023-05-02T09:28:47;102708.78;;;18.98;57.30
59190;BME280;50749;51.636;4.948;2023-05-02T09:31:24;102696.56;;;18.99;57.41
59190;BME280;50749;51.636;4.948;2023-05-02T09:33:55;102700.97;;;19.00;57.29
59190;BME280;50749;51.636;4.948;2023-05-02T09:36:21;102693.16;;;19.02;57.22
59190;BME280;50749;51.636;4.948;2023-05-02T09:38:48;102705.06;;;19.02;57.55
59190;BME280;50749;51.636;4.948;2023-05-02T09:41:15;102698.06;;;19.05;57.52
59190;BME280;50749;51.636;4.948;2023-05-02T09:43:54;102696.59;;;19.07;57.34
59190;BME280;50749;51.636;4.948;2023-05-02T09:46:21;102703.47;;;19.10;57.60
59190;BME280;50749;51.636;4.948;2023-05-02T09:48:55;102705.06;;;19.11;57.30
59190;BME280;50749;51.636;4.948;2023-05-02T09:51:28;102711.13;;;19.13;57.18
59190;BME280;50749;51.636;4.948;2023-05-02T09:53:54;102711.94;;;19.14;57.21
59190;BME280;50749;51.636;4.948;2023-05-02T09:56:20;102708.84;;;19.15;57.09
59190;BME280;50749;51.636;4.948;2023-05-02T09:58:46;102713.78;;;19.18;57.48
59190;BME280;50749;51.636;4.948;2023-05-02T10:01:16;102710.16;;;19.18;57.29
59190;BME280;50749;51.636;4.948;2023-05-02T10:03:45;102716.72;;;19.22;56.99
59190;BME280;50749;51.636;4.948;2023-05-02T10:06:12;102714.75;;;19.22;57.32
59190;BME280;50749;51.636;4.948;2023-05-02T10:08:40;102705.63;;;19.22;57.73
59190;BME280;50749;51.636;4.948;2023-05-02T10:11:07;102713.63;;;19.23;57.15
59190;BME280;50749;51.636;4.948;2023-05-02T10:13:37;102715.72;;;19.26;57.12
59190;BME280;50749;51.636;4.948;2023-05-02T10:16:05;102710.53;;;19.25;57.48
59190;BME280;50749;51.636;4.948;2023-05-02T10:18:47;102718.00;;;19.24;57.85
59190;BME280;50749;51.636;4.948;2023-05-02T10:21:24;102719.16;;;19.23;57.96
59190;BME280;50749;51.636;4.948;2023-05-02T10:23:54;102726.97;;;19.21;57.96
59190;BME280;50749;51.636;4.948;2023-05-02T10:26:21;102721.72;;;19.20;57.60
59190;BME280;50749;51.636;4.948;2023-05-02T10:28:49;102723.56;;;19.24;57.31
59190;BME280;50749;51.636;4.948;2023-05-02T10:31:16;102726.19;;;19.29;57.71
59190;BME280;50749;51.636;4.948;2023-05-02T10:33:43;102723.88;;;19.31;57.25
59190;BME280;50749;51.636;4.948;2023-05-02T10:36:10;102723.25;;;19.35;57.47
59190;BME280;50749;51.636;4.948;2023-05-02T10:38:40;102721.81;;;19.37;57.32
59190;BME280;50749;51.636;4.948;2023-05-02T10:41:24;102711.19;;;19.39;57.23
59190;BME280;50749;51.636;4.948;2023-05-02T10:43:51;102723.09;;;19.40;57.35
59190;BME280;50749;51.636;4.948;2023-05-02T10:49:06;102730.28;;;19.41;57.57
59190;BME280;50749;51.636;4.948;2023-05-02T10:51:35;102734.03;;;19.36;54.47
59190;BME280;50749;51.636;4.948;2023-05-02T10:59:40;102734.50;;;19.38;56.43
59190;BME280;50749;51.636;4.948;2023-05-02T11:05:05;102741.06;;;19.42;57.02
59190;BME280;50749;51.636;4.948;2023-05-02T11:07:35;102740.25;;;19.42;57.00
59190;BME280;50749;51.636;4.948;2023-05-02T11:10:25;102750.69;;;19.45;56.82
59190;BME280;50749;51.636;4.948;2023-05-02T11:12:57;102747.59;;;19.46;57.09
59190;BME280;50749;51.636;4.948;2023-05-02T11:18:02;102752.50;;;19.49;57.16
59190;BME280;50749;51.636;4.948;2023-05-02T11:20:31;102744.66;;;19.52;56.70
59190;BME280;50749;51.636;4.948;2023-05-02T11:25:44;102747.09;;;19.53;56.41
59190;BME280;50749;51.636;4.948;2023-05-02T11:31:02;102748.13;;;19.57;56.57
59190;BME280;50749;51.636;4.948;2023-05-02T11:33:28;102744.19;;;19.58;56.37
59190;BME280;50749;51.636;4.948;2023-05-02T11:35:54;102741.59;;;19.62;56.14
59190;BME280;50749;51.636;4.948;2023-05-02T11:38:23;102746.00;;;19.63;56.46
59190;BME280;50749;51.636;4.948;2023-05-02T11:40:59;102746.16;;;19.66;56.42
59190;BME280;50749;51.636;4.948;2023-05-02T11:43:27;102744.53;;;19.65;56.36
59190;BME280;50749;51.636;4.948;2023-05-02T11:45:54;102739.81;;;19.66;56.43
59190;BME280;50749;51.636;4.948;2023-05-02T11:48:22;102740.59;;;19.66;56.47
59190;BME280;50749;51.636;4.948;2023-05-02T11:50:50;102743.06;;;19.68;56.57
59190;BME280;50749;51.636;4.948;2023-05-02T11:53:26;102747.81;;;19.67;56.68
59190;BME280;50749;51.636;4.948;2023-05-02T11:55:56;102747.00;;;19.67;56.53
59190;BME280;50749;51.636;4.948;2023-05-02T11:58:23;102762.47;;;19.68;56.80
59190;BME280;50749;51.636;4.948;2023-05-02T12:00:51;102754.47;;;19.66;56.80
59190;BME280;50749;51.636;4.948;2023-05-02T12:03:22;102757.75;;;19.68;56.31
59190;BME280;50749;51.636;4.948;2023-05-02T12:05:49;102764.13;;;19.69;56.79
59190;BME280;50749;51.636;4.948;2023-05-02T12:10:49;102764.63;;;19.71;56.55
59190;BME280;50749;51.636;4.948;2023-05-02T12:13:17;102767.06;;;19.73;56.44
59190;BME280;50749;51.636;4.948;2023-05-02T12:15:43;102765.44;;;19.72;56.24
59190;BME280;50749;51.636;4.948;2023-05-02T12:18:09;102769.34;;;19.71;56.56
59190;BME280;50749;51.636;4.948;2023-05-02T12:20:36;102772.94;;;19.71;56.65
59190;BME280;50749;51.636;4.948;2023-05-02T12:23:03;102768.53;;;19.70;56.82
59190;BME280;50749;51.636;4.948;2023-05-02T12:25:36;102778.00;;;19.69;57.40
59190;BME280;50749;51.636;4.948;2023-05-02T12:28:05;102782.72;;;19.68;57.24
59190;BME280;50749;51.636;4.948;2023-05-02T12:30:32;102782.72;;;19.68;57.09
59190;BME280;50749;51.636;4.948;2023-05-02T12:32:59;102781.09;;;19.67;57.39
59190;BME280;50749;51.636;4.948;2023-05-02T12:35:29;102782.72;;;19.68;56.88
59190;BME280;50749;51.636;4.948;2023-05-02T12:38:16;102779.13;;;19.68;57.20
59190;BME280;50749;51.636;4.948;2023-05-02T12:40:48;102794.47;;;19.65;57.07
59190;BME280;50749;51.636;4.948;2023-05-02T12:43:14;102793.97;;;19.63;57.06
59190;BME280;50749;51.636;4.948;2023-05-02T12:45:40;102793.47;;;19.61;57.25
59190;BME280;50749;51.636;4.948;2023-05-02T12:48:24;102795.63;;;19.64;56.75
59190;BME280;50749;51.636;4.948;2023-05-02T12:50:52;102793.47;;;19.61;56.86
59190;BME280;50749;51.636;4.948;2023-05-02T12:53:40;102797.41;;;19.60;56.77
59190;BME280;50749;51.636;4.948;2023-05-02T12:56:06;102785.63;;;19.55;54.77
59190;BME280;50749;51.636;4.948;2023-05-02T12:58:40;102796.88;;;19.49;53.85
59190;BME280;50749;51.636;4.948;2023-05-02T13:01:07;102795.91;;;19.45;55.12
59190;BME280;50749;51.636;4.948;2023-05-02T13:03:33;102794.56;;;19.43;54.99
59190;BME280;50749;51.636;4.948;2023-05-02T13:05:59;102807.31;;;19.44;54.59
59190;BME280;50749;51.636;4.948;2023-05-02T13:08:24;102796.84;;;19.41;55.92
59190;BME280;50749;51.636;4.948;2023-05-02T13:10:50;102801.06;;;19.38;56.47
59190;BME280;50749;51.636;4.948;2023-05-02T13:13:16;102800.25;;;19.38;56.58
59190;BME280;50749;51.636;4.948;2023-05-02T13:15:42;102800.25;;;19.38;56.31
59190;BME280;50749;51.636;4.948;2023-05-02T13:18:08;102795.53;;;19.38;56.80
59190;BME280;50749;51.636;4.948;2023-05-02T13:20:34;102797.97;;;19.40;56.61
59190;BME280;50749;51.636;4.948;2023-05-02T13:23:00;102795.22;;;19.40;56.86
59190;BME280;50749;51.636;4.948;2023-05-02T13:25:26;102798.81;;;19.40;56.98
59190;BME280;50749;51.636;4.948;2023-05-02T13:27:51;102800.44;;;19.41;57.02
59190;BME280;50749;51.636;4.948;2023-05-02T13:30:17;102800.94;;;19.43;57.07